Time;durP1;ratioP1;P1;durP2;ratioP2;P2;SDS_P1;SDS_P2;PMS_P1;PMS_P2;Temp;Humidity;BMP_temperature;BMP_pressure;BME280_temperature;BME280_humidity;BME280_pressure;Samples;Min_cycle;Max_cycle;Signal;HPM_P1;HPM_P2
2021/04/18 00:00:18;;;;;;;79.91;14.47;;;;;;;15.51;47.29;99429.93;358023;111;1962003;-72
2021/04/18 00:01:23;;;;;;;103.96;17.25;;;;;;;15.53;47.29;99428.61;365000;110;1964912;-71
2021/04/18 00:02:28;;;;;;;105.11;15.69;;;;;;;15.42;47.49;99431.38;363077;110;1961988;-72
2021/04/18 00:03:34;;;;;;;106.12;16.45;;;;;;;15.37;47.56;99440.26;357880;112;1961996;-73
2021/04/18 00:04:41;;;;;;;119.66;17.06;;;;;;;15.34;47.61;99435.30;360834;110;1961921;-71
2021/04/18 00:05:47;;;;;;;134.04;18.63;;;;;;;15.27;47.77;99437.34;315368;110;2745015;-71
2021/04/18 00:06:53;;;;;;;117.88;16.84;;;;;;;15.34;47.61;99435.30;353636;112;1961990;-72
2021/04/18 00:08:03;;;;;;;120.38;15.95;;;;;;;15.22;47.85;99429.10;361466;110;1962014;-72
2021/04/18 00:09:10;;;;;;;107.77;15.29;;;;;;;15.29;47.76;99433.30;322961;113;2432023;-72
2021/04/18 00:10:17;;;;;;;82.02;15.23;;;;;;;15.36;47.62;99427.73;316355;108;2842956;-71
2021/04/18 00:11:23;;;;;;;118.23;16.67;;;;;;;15.34;47.50;99429.86;353077;112;1961926;-71
2021/04/18 00:12:28;;;;;;;93.54;15.82;;;;;;;15.28;47.51;99431.66;359085;112;1961973;-71
2021/04/18 00:13:33;;;;;;;95.13;15.23;;;;;;;15.15;47.90;99423.78;360849;112;1961954;-71
2021/04/18 00:14:39;;;;;;;107.07;16.33;;;;;;;15.13;47.94;99428.63;360583;110;1964006;-71
2021/04/18 00:15:56;;;;;;;104.48;15.33;;;;;;;15.13;48.05;99434.08;358435;110;1961956;-71
2021/04/18 00:17:01;;;;;;;85.03;14.62;;;;;;;15.13;48.03;99429.45;339382;109;1964008;-72
2021/04/18 00:18:07;;;;;;;84.69;15.66;;;;;;;15.16;47.98;99426.28;363909;109;1962089;-71
2021/04/18 00:19:12;;;;;;;95.18;15.98;;;;;;;15.08;48.12;99431.25;358787;110;1961956;-72
2021/04/18 00:20:19;;;;;;;77.86;17.49;;;;;;;15.12;48.03;99427.81;360069;112;1961956;-71
2021/04/18 00:21:24;;;;;;;62.02;15.49;;;;;;;14.99;48.35;99429.98;366979;108;1963969;-71
2021/04/18 00:22:30;;;;;;;70.47;14.74;;;;;;;14.93;48.59;99429.88;312862;110;2779043;-73
2021/04/18 00:23:37;;;;;;;97.32;19.89;;;;;;;15.10;48.22;99429.94;365555;108;1961972;-72
2021/04/18 00:24:44;;;;;;;104.47;18.96;;;;;;;15.11;48.23;99423.45;366486;108;1962009;-73
2021/04/18 00:25:51;;;;;;;89.65;19.78;;;;;;;15.01;48.36;99412.36;319710;110;2640015;-72
2021/04/18 00:26:56;;;;;;;95.91;19.08;;;;;;;15.09;48.35;99420.14;358937;111;1961989;-70
2021/04/18 00:28:02;;;;;;;102.97;20.56;;;;;;;15.03;48.52;99418.39;358656;110;1961955;-71
2021/04/18 00:29:07;;;;;;;70.92;17.30;;;;;;;15.02;48.44;99426.78;358252;110;1962006;-72
2021/04/18 00:30:24;;;;;;;63.11;17.21;;;;;;;14.88;48.68;99421.61;357602;112;1961946;-72
2021/04/18 00:31:31;;;;;;;72.74;18.11;;;;;;;14.93;48.77;99418.19;354163;112;1964029;-72
2021/04/18 00:32:37;;;;;;;59.90;16.27;;;;;;;15.06;48.35;99417.91;354181;112;1963941;-72
2021/04/18 00:33:44;;;;;;;106.49;21.29;;;;;;;15.08;48.29;99418.50;352447;112;1964023;-71
2021/04/18 00:34:51;;;;;;;94.25;19.01;;;;;;;15.19;48.03;99422.25;352864;112;1961995;-71
2021/04/18 00:35:57;;;;;;;102.14;22.23;;;;;;;15.13;48.04;99410.41;360539;110;1960805;-70
2021/04/18 00:37:02;;;;;;;66.21;17.08;;;;;;;15.07;48.21;99419.55;359059;110;1962042;-71
2021/04/18 00:38:08;;;;;;;52.55;15.75;;;;;;;14.94;48.45;99426.08;360942;110;1963049;-72
2021/04/18 00:39:14;;;;;;;110.19;22.36;;;;;;;15.13;48.15;99412.31;313137;110;2842996;-72
2021/04/18 00:40:23;;;;;;;42.03;15.07;;;;;;;15.16;47.99;99415.39;355089;112;1961997;-71
2021/04/18 00:41:31;;;;;;;51.86;16.38;;;;;;;15.15;47.96;99421.06;330398;112;2395938;-72
2021/04/18 00:42:36;;;;;;;46.62;15.91;;;;;;;15.26;47.76;99413.92;360075;110;1964001;-73
2021/04/18 00:43:43;;;;;;;45.33;14.52;;;;;;;15.29;47.61;99408.81;356785;110;1963940;-71
2021/04/18 00:44:49;;;;;;;44.57;15.98;;;;;;;15.33;47.46;99412.72;341983;112;2270962;-72
2021/04/18 00:45:54;;;;;;;33.33;15.38;;;;;;;15.32;47.47;99413.80;348077;112;1961998;-72
2021/04/18 00:47:00;;;;;;;28.39;13.27;;;;;;;15.38;47.43;99407.37;358158;110;1961942;-72
2021/04/18 00:48:06;;;;;;;53.31;15.61;;;;;;;15.27;47.63;99401.96;350297;113;1961891;-72
2021/04/18 00:49:12;;;;;;;26.44;15.36;;;;;;;15.27;47.59;99412.84;361539;110;1962023;-71
2021/04/18 00:50:25;;;;;;;33.81;14.79;;;;;;;15.34;47.46;99411.63;314618;112;2783009;-73
2021/04/18 00:51:30;;;;;;;19.55;12.89;;;;;;;15.30;47.45;99404.22;358397;110;1963877;-72
2021/04/18 00:52:35;;;;;;;19.18;12.18;;;;;;;15.35;47.46;99412.48;352439;112;1961927;-71
2021/04/18 00:53:41;;;;;;;20.03;12.30;;;;;;;15.42;47.34;99418.58;359908;110;1961944;-71
2021/04/18 00:54:47;;;;;;;21.13;12.94;;;;;;;15.46;47.15;99411.59;361112;110;1963018;-72
2021/04/18 00:55:53;;;;;;;21.01;12.98;;;;;;;15.56;46.89;99410.97;311586;110;2866065;-72
2021/04/18 00:56:58;;;;;;;18.12;11.78;;;;;;;15.63;46.88;99410.80;338699;110;1962989;-71
2021/04/18 00:58:07;;;;;;;17.32;11.89;;;;;;;15.55;46.83;99409.30;359093;110;1960895;-71
2021/04/18 00:59:12;;;;;;;18.22;12.16;;;;;;;15.49;46.95;99410.28;296325;112;2173869;-72
2021/04/18 01:00:21;;;;;;;19.62;12.38;;;;;;;15.60;46.80;99412.11;354483;110;1963930;-72
2021/04/18 01:01:26;;;;;;;17.39;11.53;;;;;;;15.56;46.86;99406.34;359429;110;1965024;-72
2021/04/18 01:02:32;;;;;;;17.84;11.29;;;;;;;15.59;46.82;99405.84;323434;110;2591952;-71
2021/04/18 01:03:38;;;;;;;20.29;12.08;;;;;;;15.68;46.73;99403.54;347794;110;1961000;-72
2021/04/18 01:04:44;;;;;;;19.57;11.63;;;;;;;15.74;46.49;99401.75;360925;110;1962015;-73
2021/04/18 01:05:49;;;;;;;17.68;11.73;;;;;;;15.72;46.39;99398.48;359701;110;1960930;-72
2021/04/18 01:06:56;;;;;;;17.55;11.06;;;;;;;15.70;46.45;99397.89;359691;110;1961985;-71
2021/04/18 01:08:03;;;;;;;19.27;12.44;;;;;;;15.82;46.23;99402.20;316432;110;2740950;-72
2021/04/18 01:09:08;;;;;;;17.33;10.97;;;;;;;15.81;46.18;99395.08;360066;110;1963001;-72
2021/04/18 01:10:16;;;;;;;16.33;10.71;;;;;;;15.73;46.58;99391.95;355478;112;1961991;-72
2021/04/18 01:11:22;;;;;;;17.49;11.28;;;;;;;15.79;46.28;99385.50;335921;110;2276016;-72
2021/04/18 01:12:27;;;;;;;18.00;11.35;;;;;;;15.79;46.15;99388.23;338408;110;1962003;-72
2021/04/18 01:13:33;;;;;;;18.34;12.57;;;;;;;15.82;46.21;99390.45;360904;110;1962004;-72
2021/04/18 01:14:40;;;;;;;17.89;11.41;;;;;;;15.69;46.45;99391.63;360291;110;1962957;-72
2021/04/18 01:15:46;;;;;;;16.90;11.51;;;;;;;15.88;46.13;99385.91;311616;112;2741032;-72
2021/04/18 01:16:54;;;;;;;17.26;11.22;;;;;;;15.86;46.21;99388.90;355630;110;1962056;-71
2021/04/18 01:18:00;;;;;;;17.87;11.09;;;;;;;15.79;46.20;99390.95;361253;110;1961956;-71
2021/04/18 01:19:06;;;;;;;19.55;12.59;;;;;;;15.80;46.21;99387.17;326696;110;1962046;-72
2021/04/18 01:20:19;;;;;;;21.11;12.46;;;;;;;15.75;46.34;99387.91;360782;110;1963024;-72
2021/04/18 01:21:25;;;;;;;17.76;10.91;;;;;;;15.82;46.20;99388.58;360423;110;1961041;-71
2021/04/18 01:22:32;;;;;;;20.46;11.50;;;;;;;15.80;46.04;99384.45;360780;110;1963026;-70
2021/04/18 01:23:41;;;;;;;19.88;11.79;;;;;;;15.89;46.10;99393.03;358441;108;1962034;-72
2021/04/18 01:24:54;;;;;;;18.70;11.06;;;;;;;15.82;46.02;99387.73;360228;110;1963918;-72
2021/04/18 01:26:02;;;;;;;17.94;11.82;;;;;;;15.80;45.97;99387.17;352593;110;1962868;-72
2021/04/18 01:27:11;;;;;;;19.76;11.96;;;;;;;15.86;45.97;99378.00;362959;110;1962961;-71
2021/04/18 01:28:16;;;;;;;18.24;11.48;;;;;;;15.86;46.01;99378.00;340254;110;1962997;-71
2021/04/18 01:29:22;;;;;;;18.07;11.34;;;;;;;15.82;45.97;99379.56;360678;110;1961982;-72
2021/04/18 01:30:29;;;;;;;20.86;12.63;;;;;;;15.78;45.98;99379.23;360890;110;1961985;-73
2021/04/18 01:31:35;;;;;;;19.73;10.68;;;;;;;15.70;46.09;99385.09;308397;111;2853975;-71
2021/04/18 01:32:46;;;;;;;20.07;11.87;;;;;;;15.73;45.97;99384.59;357043;111;1964029;-72
2021/04/18 01:33:53;;;;;;;19.09;11.41;;;;;;;15.75;46.02;99381.64;355509;111;1962024;-72
2021/04/18 01:35:00;;;;;;;19.00;11.78;;;;;;;15.77;45.91;99377.59;357197;113;1962009;-71
2021/04/18 01:36:08;;;;;;;19.44;11.50;;;;;;;15.79;45.89;99375.43;356803;111;1961970;-72
2021/04/18 01:37:16;;;;;;;18.69;11.34;;;;;;;15.70;46.05;99378.83;354464;111;1964937;-71
2021/04/18 01:38:21;;;;;;;19.52;11.92;;;;;;;15.57;46.26;99371.77;357173;113;1962887;-72
2021/04/18 01:39:27;;;;;;;18.93;11.55;;;;;;;15.54;46.33;99378.53;356114;111;1963028;-71
2021/04/18 01:40:34;;;;;;;17.87;10.53;;;;;;;15.43;46.59;99382.15;357513;111;1964061;-72
2021/04/18 01:41:41;;;;;;;19.05;10.77;;;;;;;15.31;46.78;99373.20;313412;111;2026992;-72
2021/04/18 01:42:48;;;;;;;17.83;11.22;;;;;;;15.46;46.57;99376.20;355716;111;1961975;-71
2021/04/18 01:43:54;;;;;;;18.64;11.46;;;;;;;15.45;46.61;99377.26;338693;111;2902330;-71
2021/04/18 01:44:59;;;;;;;18.68;11.78;;;;;;;15.50;46.56;99380.08;337947;113;1961919;-71
2021/04/18 01:46:05;;;;;;;19.55;11.49;;;;;;;15.47;46.55;99382.47;352800;113;1960961;-71
2021/04/18 01:47:10;;;;;;;20.52;11.84;;;;;;;15.48;46.60;99374.08;357056;111;1961956;-71
2021/04/18 01:48:17;;;;;;;31.69;12.07;;;;;;;15.48;46.63;99379.52;354925;111;1961979;-72
2021/04/18 01:49:23;;;;;;;29.31;11.63;;;;;;;15.34;46.77;99378.97;347953;114;1961996;-72
2021/04/18 01:50:32;;;;;;;28.75;12.24;;;;;;;15.50;46.44;99380.08;350440;113;1962047;-71
2021/04/18 01:51:38;;;;;;;36.67;12.71;;;;;;;15.48;46.59;99378.67;351821;113;1961951;-72
2021/04/18 01:52:47;;;;;;;48.03;13.14;;;;;;;15.48;46.58;99370.50;356846;111;1961954;-71
2021/04/18 01:53:59;;;;;;;49.54;14.58;;;;;;;15.39;46.67;99375.53;357801;111;1960963;-71
2021/04/18 01:55:07;;;;;;;38.36;11.81;;;;;;;15.38;46.74;99373.89;362007;110;1961929;-71
2021/04/18 01:56:15;;;;;;;51.19;14.65;;;;;;;15.37;46.77;99369.50;355932;112;1963006;-72
2021/04/18 01:57:22;;;;;;;48.99;14.06;;;;;;;15.32;46.93;99372.12;356543;112;1962067;-71
2021/04/18 01:58:28;;;;;;;63.50;15.09;;;;;;;15.45;46.60;99365.55;342558;110;2293712;-72
2021/04/18 01:59:38;;;;;;;46.86;13.54;;;;;;;15.49;46.48;99362.11;329864;112;1963808;-71
2021/04/18 02:00:52;;;;;;;61.42;14.99;;;;;;;15.64;46.24;99357.98;334695;119;1961979;-71
2021/04/18 02:02:09;;;;;;;82.27;17.87;;;;;;;15.71;45.92;99358.69;309844;110;2768027;-71
2021/04/18 02:03:17;;;;;;;75.98;17.55;;;;;;;15.50;46.25;99362.92;357708;111;1961958;-71
2021/04/18 02:04:26;;;;;;;61.76;14.62;;;;;;;15.42;46.51;99361.42;348782;112;1961855;-72
2021/04/18 02:05:35;;;;;;;45.02;13.61;;;;;;;15.37;46.67;99351.30;358537;112;1960868;-72
2021/04/18 02:06:42;;;;;;;77.41;15.61;;;;;;;15.54;46.30;99356.75;313840;112;2067198;-71
2021/04/18 02:07:48;;;;;;;112.72;21.37;;;;;;;15.54;46.31;99364.09;358289;112;1963884;-73
2021/04/18 02:08:54;;;;;;;63.72;14.55;;;;;;;15.52;46.34;99358.88;358827;112;1961949;-71
2021/04/18 02:10:01;;;;;;;78.43;17.68;;;;;;;15.68;46.14;99361.88;358548;112;1962912;-72
2021/04/18 02:11:09;;;;;;;78.36;16.47;;;;;;;15.70;45.98;99365.22;360912;112;1963947;-73
2021/04/18 02:12:15;;;;;;;97.98;18.74;;;;;;;16.01;45.44;99366.54;358593;112;1961989;-72
2021/04/18 02:13:21;;;;;;;72.87;16.29;;;;;;;15.83;45.74;99365.70;360046;112;1960746;-71
2021/04/18 02:14:44;;;;;;;61.04;14.53;;;;;;;15.75;45.93;99363.40;359276;110;1963949;-71
2021/04/18 02:15:52;;;;;;;54.37;15.14;;;;;;;15.96;45.59;99361.01;328167;112;2517043;-71
2021/04/18 02:16:58;;;;;;;87.39;18.83;;;;;;;15.96;45.58;99356.38;360966;111;1963032;-70
2021/04/18 02:18:04;;;;;;;43.61;14.87;;;;;;;15.95;45.53;99351.98;358540;110;1961923;-73
2021/04/18 02:19:10;;;;;;;43.09;14.58;;;;;;;15.93;45.49;99354.16;359334;112;1961902;-70
2021/04/18 02:20:18;;;;;;;37.53;12.84;;;;;;;15.97;45.52;99352.57;360018;112;1962923;-71
2021/04/18 02:21:23;;;;;;;43.94;14.36;;;;;;;16.05;45.46;99346.70;359017;111;1961963;-72
2021/04/18 02:22:29;;;;;;;43.17;14.21;;;;;;;16.00;45.46;99349.34;360696;112;1960889;-71
2021/04/18 02:23:35;;;;;;;32.17;13.39;;;;;;;16.01;45.50;99353.73;358856;110;1964938;-72
2021/04/18 02:24:41;;;;;;;37.93;14.18;;;;;;;16.05;45.35;99346.70;319987;115;1962029;-71
2021/04/18 02:25:47;;;;;;;39.80;14.11;;;;;;;16.02;45.42;99351.83;354421;111;1963824;-72
2021/04/18 02:26:53;;;;;;;43.43;15.17;;;;;;;16.04;45.40;99355.14;361849;111;1964929;-72
2021/04/18 02:28:00;;;;;;;36.70;14.09;;;;;;;16.05;45.36;99348.60;357306;112;1962032;-72
2021/04/18 02:29:07;;;;;;;44.24;16.11;;;;;;;16.14;45.04;99352.57;358869;110;1961985;-72
2021/04/18 02:30:16;;;;;;;31.50;13.56;;;;;;;16.21;45.06;99355.92;316810;112;2691977;-72
2021/04/18 02:31:24;;;;;;;39.16;14.24;;;;;;;16.23;44.98;99350.23;360520;112;1962015;-72
2021/04/18 02:32:31;;;;;;;44.53;13.42;;;;;;;16.29;44.81;99346.50;359908;110;1961937;-72
2021/04/18 02:33:38;;;;;;;44.99;14.38;;;;;;;16.20;44.97;99345.29;360045;112;1962942;-71
2021/04/18 02:34:46;;;;;;;50.83;16.71;;;;;;;16.15;45.06;99350.66;309319;112;2860979;-71
2021/04/18 02:35:51;;;;;;;39.66;15.08;;;;;;;16.17;45.08;99340.34;359266;112;1962043;-72
2021/04/18 02:36:57;;;;;;;35.93;13.77;;;;;;;16.19;44.99;99341.72;361010;112;1961940;-71
2021/04/18 02:38:03;;;;;;;58.44;15.42;;;;;;;16.21;44.96;99336.02;358575;112;1960818;-71
2021/04/18 02:39:09;;;;;;;56.47;16.51;;;;;;;15.94;45.36;99338.63;358591;112;1962903;-72
2021/04/18 02:40:15;;;;;;;84.78;18.04;;;;;;;15.84;45.52;99333.84;325742;112;2235989;-71
2021/04/18 02:41:22;;;;;;;79.21;18.21;;;;;;;15.80;45.78;99330.80;359155;112;1963910;-72
2021/04/18 02:42:27;;;;;;;73.38;16.48;;;;;;;15.73;45.83;99337.48;352080;114;1961004;-70
2021/04/18 02:43:34;;;;;;;83.69;18.75;;;;;;;15.74;45.75;99337.22;351681;112;1962012;-72
2021/04/18 02:44:40;;;;;;;59.49;15.34;;;;;;;15.72;45.80;99338.57;305858;112;2131419;-72
2021/04/18 02:45:46;;;;;;;47.13;14.76;;;;;;;15.74;45.74;99326.33;358193;111;1962037;-72
2021/04/18 02:46:51;;;;;;;63.28;14.44;;;;;;;15.97;45.24;99325.33;359941;112;1961933;-72
2021/04/18 02:47:57;;;;;;;38.61;13.96;;;;;;;15.80;45.50;99324.53;358541;111;1961936;-72
2021/04/18 02:49:03;;;;;;;45.36;13.57;;;;;;;15.82;45.58;99317.77;359617;112;1963005;-72
2021/04/18 02:50:11;;;;;;;33.52;13.29;;;;;;;15.84;45.46;99325.67;359000;112;1963946;-72
2021/04/18 02:51:17;;;;;;;37.32;14.28;;;;;;;16.01;45.30;99321.05;359736;112;1963977;-71
2021/04/18 02:52:23;;;;;;;33.12;13.42;;;;;;;16.13;45.00;99320.92;358697;112;1963030;-71
2021/04/18 02:53:29;;;;;;;32.53;12.74;;;;;;;16.24;44.76;99322.71;310911;112;2724961;-71
2021/04/18 02:54:35;;;;;;;36.31;13.15;;;;;;;16.24;44.66;99317.27;341551;112;1962020;-71
2021/04/18 02:55:41;;;;;;;26.67;12.79;;;;;;;16.17;44.81;99315.82;364221;110;1962294;-70
2021/04/18 02:56:49;;;;;;;30.38;13.30;;;;;;;16.21;44.64;99314.23;326541;110;1963986;-71
2021/04/18 02:57:56;;;;;;;25.03;13.21;;;;;;;16.24;44.60;99317.27;364122;110;1962948;-72
2021/04/18 02:59:03;;;;;;;34.19;12.90;;;;;;;16.21;44.62;99319.67;362977;110;1961970;-72
2021/04/18 03:00:10;;;;;;;53.12;13.93;;;;;;;16.06;44.91;99320.27;314754;110;2092164;-71
2021/04/18 03:01:15;;;;;;;44.81;12.81;;;;;;;16.06;45.06;99309.38;365393;110;1962010;-72
2021/04/18 03:02:21;;;;;;;56.49;14.62;;;;;;;16.03;44.93;99313.42;363561;110;1962041;-71
2021/04/18 03:03:27;;;;;;;48.76;12.84;;;;;;;15.87;45.37;99308.83;363454;110;1962971;-71
2021/04/18 03:04:33;;;;;;;53.34;14.76;;;;;;;15.86;45.10;99322.71;341898;110;2286037;-71
2021/04/18 03:05:39;;;;;;;53.57;15.03;;;;;;;15.78;45.45;99313.88;366341;110;1962070;-72
2021/04/18 03:06:46;;;;;;;51.43;13.11;;;;;;;15.76;45.51;99318.74;363438;108;1961896;-72
2021/04/18 03:07:52;;;;;;;56.66;14.64;;;;;;;15.66;45.71;99325.89;364422;110;1962027;-72
2021/04/18 03:08:59;;;;;;;43.99;12.42;;;;;;;15.65;45.61;99321.53;298165;110;2236827;-71
2021/04/18 03:10:06;;;;;;;47.98;13.66;;;;;;;15.94;45.17;99314.94;364690;110;1961963;-71
2021/04/18 03:11:12;;;;;;;60.34;14.74;;;;;;;15.79;45.52;99315.52;363038;110;1961951;-72
2021/04/18 03:12:18;;;;;;;53.74;14.09;;;;;;;15.68;45.80;99310.95;322939;110;2663965;-72
2021/04/18 03:13:25;;;;;;;53.42;13.67;;;;;;;15.54;45.92;99310.47;363186;110;1962063;-71
2021/04/18 03:14:33;;;;;;;40.51;12.71;;;;;;;15.69;45.86;99312.66;356587;110;2957919;-72
2021/04/18 03:15:39;;;;;;;22.58;10.34;;;;;;;15.74;45.60;99320.88;364034;110;1962049;-71
2021/04/18 03:16:48;;;;;;;35.36;12.22;;;;;;;15.95;45.31;99322.02;304068;110;2182395;-71
2021/04/18 03:18:07;;;;;;;52.16;14.21;;;;;;;16.01;44.92;99312.05;363601;110;1965392;-71
2021/04/18 03:19:13;;;;;;;41.57;12.91;;;;;;;15.90;45.24;99316.49;329465;112;1961952;-72
2021/04/18 03:20:20;;;;;;;56.92;14.76;;;;;;;16.05;44.98;99311.28;353119;112;1962022;-71
2021/04/18 03:21:26;;;;;;;39.33;10.68;;;;;;;16.09;44.85;99316.22;353293;114;1961933;-71
2021/04/18 03:22:32;;;;;;;36.54;11.71;;;;;;;15.92;45.19;99311.62;311864;114;2017687;-71
2021/04/18 03:23:38;;;;;;;30.31;10.67;;;;;;;15.93;45.11;99321.47;346838;112;1964926;-71
2021/04/18 03:24:46;;;;;;;40.88;12.84;;;;;;;15.89;45.18;99316.77;352950;114;1961923;-72
2021/04/18 03:25:53;;;;;;;34.82;11.61;;;;;;;15.75;45.55;99316.28;351546;112;1963991;-71
2021/04/18 03:26:59;;;;;;;40.53;12.60;;;;;;;15.79;45.45;99318.23;353132;112;1962093;-71
2021/04/18 03:28:06;;;;;;;60.03;13.82;;;;;;;15.90;45.35;99311.05;352465;112;1963978;-72
2021/04/18 03:29:19;;;;;;;33.61;11.58;;;;;;;15.94;45.36;99314.94;352350;112;1962009;-71
2021/04/18 03:30:27;;;;;;;55.41;15.48;;;;;;;16.01;45.11;99310.14;326649;115;2235990;-71
2021/04/18 03:31:34;;;;;;;53.53;14.49;;;;;;;15.86;45.27;99315.36;353338;112;1962951;-72
2021/04/18 03:32:42;;;;;;;38.22;13.45;;;;;;;15.89;45.37;99306.69;317024;114;1965002;-72
2021/04/18 03:33:48;;;;;;;51.08;14.62;;;;;;;15.95;45.31;99310.30;352850;112;1962016;-71
2021/04/18 03:34:54;;;;;;;54.92;13.50;;;;;;;15.80;45.42;99303.56;352074;112;1961987;-73
2021/04/18 03:36:01;;;;;;;40.03;12.01;;;;;;;15.89;45.44;99301.23;348018;114;1962968;-71
2021/04/18 03:37:08;;;;;;;47.05;11.81;;;;;;;15.98;45.13;99307.08;353420;105;1961967;-70
2021/04/18 03:38:15;;;;;;;46.37;12.80;;;;;;;16.01;45.10;99299.25;355892;112;1961942;-71
2021/04/18 03:39:21;;;;;;;51.54;11.68;;;;;;;16.02;45.10;99295.44;317276;113;1966932;-72
2021/04/18 03:40:30;;;;;;;70.19;13.49;;;;;;;16.03;45.08;99297.08;349566;114;1961876;-71
2021/04/18 03:41:35;;;;;;;62.97;13.69;;;;;;;15.94;45.31;99306.77;349034;114;1962320;-71
2021/04/18 03:42:41;;;;;;;64.99;16.03;;;;;;;15.99;45.16;99301.39;306617;114;2745998;-72
2021/04/18 03:43:46;;;;;;;90.17;15.70;;;;;;;15.95;45.47;99305.67;321462;114;1962126;-71
2021/04/18 03:44:53;;;;;;;63.27;14.36;;;;;;;15.86;45.57;99306.37;348375;113;1961934;-71
2021/04/18 03:46:01;;;;;;;45.65;12.22;;;;;;;16.39;44.50;99300.30;305149;116;2762923;-72
2021/04/18 03:47:08;;;;;;;50.96;13.56;;;;;;;16.46;44.25;99297.40;348944;115;1962968;-72
2021/04/18 03:48:19;;;;;;;48.36;12.71;;;;;;;16.56;43.93;99302.95;350995;112;1962010;-72
2021/04/18 03:49:26;;;;;;;50.94;12.79;;;;;;;16.49;44.06;99308.61;319319;115;1963969;-72
2021/04/18 03:50:34;;;;;;;31.12;11.28;;;;;;;16.60;43.96;99303.29;346952;114;1963983;-72
2021/04/18 03:51:42;;;;;;;28.11;10.11;;;;;;;16.97;43.33;99297.19;344145;116;1962042;-71
2021/04/18 03:52:49;;;;;;;35.99;11.77;;;;;;;17.03;43.02;99307.88;347500;114;1962039;-71
2021/04/18 03:53:55;;;;;;;38.06;11.21;;;;;;;17.05;43.11;99299.45;284325;115;2241194;-72
2021/04/18 03:55:03;;;;;;;63.44;12.71;;;;;;;16.71;43.64;99302.32;350021;114;1965044;-71
2021/04/18 03:56:11;;;;;;;43.72;12.61;;;;;;;16.29;44.57;99308.34;341806;114;1962989;-71
2021/04/18 03:57:18;;;;;;;32.06;9.74;;;;;;;16.66;43.87;99305.80;350295;113;1960807;-72
2021/04/18 03:58:25;;;;;;;32.04;10.08;;;;;;;16.76;43.69;99298.84;349886;114;1961972;-72
2021/04/18 03:59:32;;;;;;;22.28;9.12;;;;;;;16.93;43.31;99302.31;345842;114;1962001;-71
2021/04/18 04:00:39;;;;;;;15.94;7.58;;;;;;;17.07;43.02;99313.67;348634;114;1961921;-72
2021/04/18 04:01:45;;;;;;;17.54;8.13;;;;;;;16.55;43.89;99309.49;330713;116;2289887;-72
2021/04/18 04:02:53;;;;;;;16.21;8.55;;;;;;;16.64;44.04;99307.95;350524;115;1961986;-71
2021/04/18 04:04:00;;;;;;;16.56;7.70;;;;;;;16.72;43.92;99312.14;312147;114;1972327;-72
2021/04/18 04:05:09;;;;;;;16.89;8.52;;;;;;;16.84;43.50;99304.69;349904;114;1962107;-71
2021/04/18 04:06:15;;;;;;;16.78;8.84;;;;;;;16.76;43.71;99304.30;347173;114;1965361;-73
2021/04/18 04:07:23;;;;;;;14.27;7.98;;;;;;;16.81;43.50;99307.93;350032;114;1961925;-73
2021/04/18 04:08:29;;;;;;;15.67;9.26;;;;;;;16.85;43.45;99308.23;340882;116;2902921;-72
2021/04/18 04:09:36;;;;;;;16.22;8.01;;;;;;;16.86;43.41;99305.27;349219;115;1962045;-71
2021/04/18 04:10:41;;;;;;;14.88;8.57;;;;;;;16.98;43.29;99307.83;349530;114;1961994;-71
2021/04/18 04:11:48;;;;;;;16.06;8.81;;;;;;;17.06;43.16;99307.36;348843;114;1962079;-72
2021/04/18 04:12:59;;;;;;;15.18;8.98;;;;;;;17.12;43.00;99309.09;349292;115;1962990;-72
2021/04/18 04:14:06;;;;;;;14.98;8.26;;;;;;;17.23;42.85;99310.01;349629;115;1962100;-72
2021/04/18 04:15:13;;;;;;;16.18;8.44;;;;;;;17.22;42.80;99313.80;350297;115;1963056;-72
2021/04/18 04:16:22;;;;;;;16.73;7.87;;;;;;;17.09;42.97;99311.48;347479;114;1961906;-72
2021/04/18 04:17:28;;;;;;;13.30;8.01;;;;;;;17.05;43.18;99310.37;350286;114;1961948;-72
2021/04/18 04:18:47;;;;;;;14.19;8.37;;;;;;;17.12;43.09;99308.23;347337;114;1964953;-72
2021/04/18 04:20:13;;;;;;;15.31;7.59;;;;;;;17.12;43.00;99308.23;349262;116;1961974;-72
2021/04/18 04:21:34;;;;;;;12.31;7.29;;;;;;;17.15;43.08;99310.48;307276;118;1962046;-71
2021/04/18 04:22:44;;;;;;;16.90;9.07;;;;;;;16.90;43.32;99311.84;325815;114;1961969;-72
2021/04/18 04:23:51;;;;;;;11.40;7.19;;;;;;;17.02;43.37;99305.43;344663;115;1962069;-72
2021/04/18 04:24:58;;;;;;;14.51;8.60;;;;;;;17.01;43.21;99301.03;350012;114;1961982;-71
2021/04/18 04:26:04;;;;;;;12.96;7.31;;;;;;;17.08;43.18;99307.94;312998;115;1971467;-72
2021/04/18 04:27:09;;;;;;;13.60;8.23;;;;;;;17.11;43.16;99298.41;350408;114;1960749;-72
2021/04/18 04:28:15;;;;;;;14.22;8.11;;;;;;;17.12;43.04;99300.90;350967;114;1961951;-71
2021/04/18 04:29:20;;;;;;;14.13;8.50;;;;;;;17.18;43.01;99295.49;348243;113;1962034;-71
2021/04/18 04:30:26;;;;;;;13.43;7.86;;;;;;;17.12;42.94;99298.17;345227;115;1961946;-71
2021/04/18 04:31:32;;;;;;;13.30;7.37;;;;;;;17.07;43.19;99289.93;350399;116;1960864;-72
2021/04/18 04:32:38;;;;;;;14.51;8.12;;;;;;;17.26;42.98;99290.38;324743;115;2425086;-71
2021/04/18 04:33:44;;;;;;;14.14;8.83;;;;;;;17.40;42.68;99296.23;346358;116;1961879;-71
2021/04/18 04:34:49;;;;;;;14.44;8.63;;;;;;;17.38;42.71;99290.20;348692;115;1960827;-72
2021/04/18 04:35:55;;;;;;;13.52;8.12;;;;;;;17.37;42.64;99299.48;345872;116;1961935;-71
2021/04/18 04:37:14;;;;;;;13.53;7.68;;;;;;;17.30;42.95;99279.75;347757;116;1961918;-72
2021/04/18 04:38:23;;;;;;;13.34;7.58;;;;;;;17.04;43.27;99295.91;363758;109;1962038;-71
2021/04/18 04:39:28;;;;;;;12.34;7.54;;;;;;;17.17;43.21;99291.91;339524;111;1962982;-72
2021/04/18 04:40:33;;;;;;;13.31;7.17;;;;;;;17.15;43.18;99299.56;358941;112;1962059;-72
2021/04/18 04:41:39;;;;;;;11.59;7.43;;;;;;;17.10;43.33;99296.78;359937;110;1961979;-72
2021/04/18 04:42:46;;;;;;;12.92;7.76;;;;;;;17.07;43.37;99294.56;359813;112;1961905;-72
2021/04/18 04:44:04;;;;;;;13.30;8.51;;;;;;;16.85;43.56;99297.31;316784;112;2707945;-72
2021/04/18 04:45:10;;;;;;;13.49;8.19;;;;;;;16.92;43.70;99292.50;352799;113;1961982;-72
2021/04/18 04:46:16;;;;;;;14.58;8.21;;;;;;;17.00;43.69;99283.84;351897;114;1962864;-71
2021/04/18 04:47:22;;;;;;;14.10;8.59;;;;;;;17.14;43.35;99295.16;332743;114;2285043;-71
2021/04/18 04:48:28;;;;;;;13.58;8.80;;;;;;;16.67;44.19;99284.80;347287;112;1961971;-72
2021/04/18 04:49:34;;;;;;;13.47;7.72;;;;;;;17.12;43.53;99289.13;351975;112;1963004;-72
2021/04/18 04:50:39;;;;;;;14.52;8.45;;;;;;;17.10;43.33;99289.41;353436;112;1962009;-72
2021/04/18 04:51:44;;;;;;;14.62;7.84;;;;;;;17.18;43.33;99285.39;353300;112;1964008;-72
2021/04/18 04:52:50;;;;;;;12.54;7.51;;;;;;;17.23;43.13;99279.98;354009;112;1961968;-72
2021/04/18 04:53:56;;;;;;;12.93;7.54;;;;;;;17.20;43.10;99285.97;352628;112;1962967;-72
2021/04/18 04:55:03;;;;;;;13.14;7.78;;;;;;;17.26;42.98;99282.19;319137;112;2896932;-72
2021/04/18 04:56:09;;;;;;;13.43;8.44;;;;;;;17.39;42.85;99282.85;349991;112;1962868;-72
2021/04/18 04:57:15;;;;;;;13.22;7.57;;;;;;;17.31;43.05;99282.23;352505;112;1961077;-72
2021/04/18 04:58:21;;;;;;;12.56;7.71;;;;;;;17.31;42.95;99278.69;353695;112;1960808;-72
2021/04/18 04:59:27;;;;;;;12.36;7.57;;;;;;;17.45;42.59;99279.89;312946;112;2699951;-72
2021/04/18 05:00:33;;;;;;;12.96;7.34;;;;;;;17.58;42.41;99278.63;351217;112;1961804;-72
2021/04/18 05:01:38;;;;;;;14.45;8.03;;;;;;;17.64;42.39;99274.84;353343;112;1961974;-71